Fruto, California
Current Conditions -  °F | °C
As of 3:15 AM on Saturday 25 Oct 2014 (Local Time) from KCIC Reporting Station
Scattered Clouds Scattered Clouds  
Wind Chill: 63°   Ceiling: Unl
Heat Index: 63°   Visibility: 10mi
Dew Point: 52°   Wind: 20mph
Humidity: 68%   Direction: 140°SE
Pressure: 29.86"   Gusts: 26mph
Location:  39.5041°N, 122.217°W
Report Text: KCIC 251015Z AUTO 14017G23KT 10SM SCT050 17/11 A2986 RMK AO1
Loading
Personal Weather Stations






























Interactive Weather Map
Tropical Storm Tracking
New forecast layout! Learn more

10-Day Weather Forecast

Advertisements
Track Severe Weather on mobile